Strona główna
METAR-TAF:

METAR-TAF

Lotnisko :

Port lotniczy Xi’an-Xianyang

Xi'an, Chiny

Szerokość geograficzna: 34-26N, Długość geograficzna: 108-45E, wysokość: 479 m

Aktualna obserwacja pogody

Raport powstał 14 minut temu, godzina 09:00 UTC
Wiatr 4 kt z kierunków zmiennych
Temperatura 35°C
Wilgotność 37%
Ciśnienie 1003 hPa
Widzialność 10 km lub więcej
Brak chmur poniżej 1500 m i brak chmur cumulonimbus

METAR: ZLXY 190900Z VRB02MPS CAVOK 35/18 Q1003 NOSIG

czas: 17:14 (09:14 UTC)

Prognoza

Raport powstał 6 godziny i 0 minut temu, godzina 03:14 UTC
Prognoza ważna od 19 godzina 06 UTC do 20 godzina 06 UTC
Wiatr 6 kt od wschodnio-północny wschód
Widzialność: 6000 m

TAF: ZLXY 190314Z 1906/2006 06003MPS 6000 NSC TX35/1908Z TN23/1921Z

Obserwacja i prognoza pogody dla ponad 4000 lotnisk (raport METAR i TAF).

Dostępne stacje oznaczono żółtymi i czerwonymi punktami na mapie.

Najedź kursorem aby zobaczyć nazwę stacji.

Kliknij aby zobaczyć obserwacje i prognozy pogody.

Aby zmienić mapę: kliknij na zielony przycisk z czarnym krzyżykiem, aby powiększyć; na zielony przycisk z myślnikiem, aby pomniejszyć; na zielone strzałki, aby przejść do map sąsiednich.


METAR-TAF: